sensor_id;sensor_type;location;lat;lon;timestamp;pressure;altitude;pressure_sealevel;temperature;humidity
38058;BME280;23862;51.972;4.618;2022-07-19T00:01:50;148296.81;;;22.18;100.00
38058;BME280;23862;51.972;4.618;2022-07-19T00:04:17;148287.88;;;22.15;100.00
38058;BME280;23862;51.972;4.618;2022-07-19T00:06:43;148248.13;;;21.99;100.00
38058;BME280;23862;51.972;4.618;2022-07-19T00:09:08;148245.53;;;21.98;100.00
38058;BME280;23862;51.972;4.618;2022-07-19T00:11:33;148235.25;;;21.94;100.00
38058;BME280;23862;51.972;4.618;2022-07-19T00:13:59;148277.59;;;22.11;100.00
38058;BME280;23862;51.972;4.618;2022-07-19T00:16:25;148317.38;;;22.27;100.00
38058;BME280;23862;51.972;4.618;2022-07-19T00:18:50;148337.94;;;22.35;100.00
38058;BME280;23862;51.972;4.618;2022-07-19T00:21:15;148353.34;;;22.41;100.00
38058;BME280;23862;51.972;4.618;2022-07-19T00:26:28;148385.41;;;22.54;100.00
38058;BME280;23862;51.972;4.618;2022-07-19T00:28:53;148389.25;;;22.55;100.00
38058;BME280;23862;51.972;4.618;2022-07-19T00:31:20;148299.41;;;22.19;100.00
38058;BME280;23862;51.972;4.618;2022-07-19T00:33:45;148214.75;;;21.85;100.00
38058;BME280;23862;51.972;4.618;2022-07-19T00:36:10;148200.69;;;21.80;100.00
38058;BME280;23862;51.972;4.618;2022-07-19T00:38:36;148235.25;;;21.94;100.00
38058;BME280;23862;51.972;4.618;2022-07-19T00:41:01;148271.19;;;22.08;100.00
38058;BME280;23862;51.972;4.618;2022-07-19T00:43:27;148284.00;;;22.13;100.00
38058;BME280;23862;51.972;4.618;2022-07-19T00:45:52;148275.06;;;22.10;100.00
38058;BME280;23862;51.972;4.618;2022-07-19T00:48:18;148232.72;;;21.93;100.00
38058;BME280;23862;51.972;4.618;2022-07-19T00:50:43;148218.59;;;21.87;100.00
38058;BME280;23862;51.972;4.618;2022-07-19T00:53:08;148208.31;;;21.83;100.00
38058;BME280;23862;51.972;4.618;2022-07-19T00:55:34;148168.59;;;21.67;100.00
38058;BME280;23862;51.972;4.618;2022-07-19T00:58:05;148141.66;;;21.56;100.00
38058;BME280;23862;51.972;4.618;2022-07-19T01:00:31;148108.31;;;21.43;100.00
38058;BME280;23862;51.972;4.618;2022-07-19T01:02:59;148132.69;;;21.52;100.00
38058;BME280;23862;51.972;4.618;2022-07-19T01:05:24;148172.44;;;21.68;100.00
38058;BME280;23862;51.972;4.618;2022-07-19T01:07:49;148194.25;;;21.77;100.00
38058;BME280;23862;51.972;4.618;2022-07-19T01:10:15;148214.75;;;21.85;100.00
38058;BME280;23862;51.972;4.618;2022-07-19T01:12:47;148225.03;;;21.90;100.00
38058;BME280;23862;51.972;4.618;2022-07-19T01:15:19;148231.41;;;21.92;100.00
38058;BME280;23862;51.972;4.618;2022-07-19T01:17:45;148240.41;;;21.96;100.00
38058;BME280;23862;51.972;4.618;2022-07-19T01:20:10;148227.56;;;21.91;100.00
38058;BME280;23862;51.972;4.618;2022-07-19T01:22:43;148223.72;;;21.89;100.00
38058;BME280;23862;51.972;4.618;2022-07-19T01:25:09;148213.50;;;21.85;100.00
38058;BME280;23862;51.972;4.618;2022-07-19T01:27:38;148167.31;;;21.66;100.00
38058;BME280;23862;51.972;4.618;2022-07-19T01:30:08;148119.84;;;21.47;100.00
38058;BME280;23862;51.972;4.618;2022-07-19T01:32:34;148133.97;;;21.53;100.00
38058;BME280;23862;51.972;4.618;2022-07-19T01:34:59;148157.03;;;21.62;100.00
38058;BME280;23862;51.972;4.618;2022-07-19T01:37:24;148168.59;;;21.67;100.00
38058;BME280;23862;51.972;4.618;2022-07-19T01:39:50;148167.31;;;21.66;100.00
38058;BME280;23862;51.972;4.618;2022-07-19T01:42:15;148169.91;;;21.67;100.00
38058;BME280;23862;51.972;4.618;2022-07-19T01:44:42;148166.06;;;21.66;100.00
38058;BME280;23862;51.972;4.618;2022-07-19T01:47:07;148135.28;;;21.54;100.00
38058;BME280;23862;51.972;4.618;2022-07-19T01:49:33;148136.56;;;21.54;100.00
38058;BME280;23862;51.972;4.618;2022-07-19T01:51:58;148104.47;;;21.41;100.00
38058;BME280;23862;51.972;4.618;2022-07-19T01:54:30;148103.16;;;21.41;100.00
38058;BME280;23862;51.972;4.618;2022-07-19T01:56:55;148109.56;;;21.43;100.00
38058;BME280;23862;51.972;4.618;2022-07-19T01:59:20;148100.63;;;21.40;100.00
38058;BME280;23862;51.972;4.618;2022-07-19T02:01:46;148101.88;;;21.40;100.00
38058;BME280;23862;51.972;4.618;2022-07-19T02:04:11;148107.00;;;21.42;100.00
38058;BME280;23862;51.972;4.618;2022-07-19T02:06:36;148116.00;;;21.46;100.00
38058;BME280;23862;51.972;4.618;2022-07-19T02:09:02;148104.47;;;21.41;100.00
38058;BME280;23862;51.972;4.618;2022-07-19T02:11:27;148095.47;;;21.38;100.00
38058;BME280;23862;51.972;4.618;2022-07-19T02:14:07;148099.31;;;21.39;100.00
38058;BME280;23862;51.972;4.618;2022-07-19T02:16:33;148105.72;;;21.42;100.00
38058;BME280;23862;51.972;4.618;2022-07-19T02:18:59;148089.06;;;21.35;100.00
38058;BME280;23862;51.972;4.618;2022-07-19T02:21:24;148069.84;;;21.27;100.00
38058;BME280;23862;51.972;4.618;2022-07-19T02:23:52;148072.38;;;21.28;100.00
38058;BME280;23862;51.972;4.618;2022-07-19T02:26:17;148077.53;;;21.30;100.00
38058;BME280;23862;51.972;4.618;2022-07-19T02:28:42;148072.38;;;21.28;100.00
38058;BME280;23862;51.972;4.618;2022-07-19T02:31:08;148074.97;;;21.29;100.00
38058;BME280;23862;51.972;4.618;2022-07-19T02:33:37;148087.75;;;21.34;100.00
38058;BME280;23862;51.972;4.618;2022-07-19T02:36:02;148066.00;;;21.26;100.00
38058;BME280;23862;51.972;4.618;2022-07-19T02:38:29;148073.69;;;21.29;100.00
38058;BME280;23862;51.972;4.618;2022-07-19T02:40:54;148058.31;;;21.23;100.00
38058;BME280;23862;51.972;4.618;2022-07-19T02:43:19;148048.03;;;21.19;100.00
38058;BME280;23862;51.972;4.618;2022-07-19T02:45:44;148063.41;;;21.25;100.00
38058;BME280;23862;51.972;4.618;2022-07-19T02:48:10;148060.84;;;21.24;100.00
38058;BME280;23862;51.972;4.618;2022-07-19T02:50:35;148048.03;;;21.19;100.00
38058;BME280;23862;51.972;4.618;2022-07-19T02:53:01;148053.16;;;21.21;100.00
38058;BME280;23862;51.972;4.618;2022-07-19T02:55:26;148046.78;;;21.18;100.00
38058;BME280;23862;51.972;4.618;2022-07-19T02:57:51;148053.16;;;21.21;100.00
38058;BME280;23862;51.972;4.618;2022-07-19T03:00:16;148037.78;;;21.14;100.00
38058;BME280;23862;51.972;4.618;2022-07-19T03:02:44;148040.34;;;21.15;100.00
38058;BME280;23862;51.972;4.618;2022-07-19T03:05:09;148030.06;;;21.11;100.00
38058;BME280;23862;51.972;4.618;2022-07-19T03:07:34;148012.16;;;21.04;100.00
38058;BME280;23862;51.972;4.618;2022-07-19T03:09:59;148001.91;;;21.00;100.00
38058;BME280;23862;51.972;4.618;2022-07-19T03:12:25;148003.22;;;21.01;100.00
38058;BME280;23862;51.972;4.618;2022-07-19T03:14:50;148001.91;;;21.00;100.00
38058;BME280;23862;51.972;4.618;2022-07-19T03:17:15;148004.47;;;21.01;100.00
38058;BME280;23862;51.972;4.618;2022-07-19T03:19:41;147989.09;;;20.95;100.00
38058;BME280;23862;51.972;4.618;2022-07-19T03:22:06;147981.41;;;20.92;100.00
38058;BME280;23862;51.972;4.618;2022-07-19T03:24:39;147978.81;;;20.91;100.00
38058;BME280;23862;51.972;4.618;2022-07-19T03:27:04;147973.72;;;20.89;100.00
38058;BME280;23862;51.972;4.618;2022-07-19T03:29:30;147959.59;;;20.83;100.00
38058;BME280;23862;51.972;4.618;2022-07-19T03:31:55;147958.34;;;20.83;100.00
38058;BME280;23862;51.972;4.618;2022-07-19T03:34:22;147954.50;;;20.81;100.00
38058;BME280;23862;51.972;4.618;2022-07-19T03:39:13;147936.53;;;20.74;100.00
38058;BME280;23862;51.972;4.618;2022-07-19T03:41:38;147930.16;;;20.71;100.00
38058;BME280;23862;51.972;4.618;2022-07-19T03:44:03;147923.72;;;20.69;100.00
38058;BME280;23862;51.972;4.618;2022-07-19T03:46:29;147932.69;;;20.72;100.00
38058;BME280;23862;51.972;4.618;2022-07-19T03:48:55;147930.16;;;20.71;100.00
38058;BME280;23862;51.972;4.618;2022-07-19T03:51:20;147914.78;;;20.65;100.00
38058;BME280;23862;51.972;4.618;2022-07-19T03:53:48;147899.34;;;20.59;100.00
38058;BME280;23862;51.972;4.618;2022-07-19T03:56:13;141657.50;;;20.53;100.00
38058;BME280;23862;51.972;4.618;2022-07-19T03:58:39;115798.34;;;20.50;100.00
38058;BME280;23862;51.972;4.618;2022-07-19T04:01:04;123375.78;;;20.55;100.00
38058;BME280;23862;51.972;4.618;2022-07-19T04:03:39;143027.34;;;20.59;100.00
38058;BME280;23862;51.972;4.618;2022-07-19T04:06:08;147917.31;;;20.66;100.00
38058;BME280;23862;51.972;4.618;2022-07-19T04:08:34;129932.66;;;20.60;100.00
38058;BME280;23862;51.972;4.618;2022-07-19T04:10:59;107588.09;;;20.66;100.00
38058;BME280;23862;51.972;4.618;2022-07-19T04:13:25;91839.22;;;20.65;100.00
38058;BME280;23862;51.972;4.618;2022-07-19T04:15:51;99382.50;;;20.76;100.00
38058;BME280;23862;51.972;4.618;2022-07-19T04:18:16;132414.25;;;20.90;100.00
38058;BME280;23862;51.972;4.618;2022-07-19T04:20:41;148050.63;;;21.20;100.00
38058;BME280;23862;51.972;4.618;2022-07-19T04:23:07;148119.84;;;21.47;100.00
38058;BME280;23862;51.972;4.618;2022-07-19T04:25:32;148157.03;;;21.62;100.00
38058;BME280;23862;51.972;4.618;2022-07-19T04:27:57;148267.34;;;22.07;100.00
38058;BME280;23862;51.972;4.618;2022-07-19T04:30:22;148375.16;;;22.50;100.00
38058;BME280;23862;51.972;4.618;2022-07-19T04:32:54;148503.47;;;23.01;100.00
38058;BME280;23862;51.972;4.618;2022-07-19T04:35:19;148626.69;;;23.51;100.00
38058;BME280;23862;51.972;4.618;2022-07-19T04:37:44;148701.19;;;23.80;100.00
38058;BME280;23862;51.972;4.618;2022-07-19T04:40:09;148787.28;;;24.15;100.00
38058;BME280;23862;51.972;4.618;2022-07-19T04:42:42;148856.66;;;24.43;100.00
38058;BME280;23862;51.972;4.618;2022-07-19T04:45:08;148962.03;;;24.85;100.00
38058;BME280;23862;51.972;4.618;2022-07-19T04:47:33;148942.75;;;24.77;100.00
38058;BME280;23862;51.972;4.618;2022-07-19T04:49:59;149060.94;;;25.24;100.00
38058;BME280;23862;51.972;4.618;2022-07-19T04:52:24;149097.03;;;25.39;100.00
38058;BME280;23862;51.972;4.618;2022-07-19T04:54:49;149124.03;;;25.50;100.00
38058;BME280;23862;51.972;4.618;2022-07-19T04:57:14;149145.84;;;25.58;100.00
38058;BME280;23862;51.972;4.618;2022-07-19T04:59:40;149333.66;;;26.33;100.00
38058;BME280;23862;51.972;4.618;2022-07-19T05:02:05;149376.03;;;26.50;100.00
38058;BME280;23862;51.972;4.618;2022-07-19T05:04:33;149410.78;;;26.64;100.00
38058;BME280;23862;51.972;4.618;2022-07-19T05:06:58;149163.84;;;25.66;100.00
38058;BME280;23862;51.972;4.618;2022-07-19T05:09:24;149108.59;;;25.43;100.00
38058;BME280;23862;51.972;4.618;2022-07-19T05:11:49;149296.34;;;26.19;100.00
38058;BME280;23862;51.972;4.618;2022-07-19T05:14:15;149195.97;;;25.78;100.00
38058;BME280;23862;51.972;4.618;2022-07-19T05:16:40;149098.28;;;25.39;100.00
38058;BME280;23862;51.972;4.618;2022-07-19T05:19:06;149046.84;;;25.19;100.00
38058;BME280;23862;51.972;4.618;2022-07-19T05:21:31;148951.72;;;24.81;100.00
38058;BME280;23862;51.972;4.618;2022-07-19T05:23:57;149067.41;;;25.27;100.00
38058;BME280;23862;51.972;4.618;2022-07-19T05:26:22;148976.13;;;24.90;100.00
38058;BME280;23862;51.972;4.618;2022-07-19T05:28:48;148870.75;;;24.48;100.00
38058;BME280;23862;51.972;4.618;2022-07-19T05:31:13;148812.94;;;24.25;100.00
38058;BME280;23862;51.972;4.618;2022-07-19T05:36:08;148856.66;;;24.43;100.00
38058;BME280;23862;51.972;4.618;2022-07-19T05:38:36;148812.94;;;24.25;100.00
38058;BME280;23862;51.972;4.618;2022-07-19T05:41:03;148802.69;;;24.21;100.00
38058;BME280;23862;51.972;4.618;2022-07-19T05:43:28;148780.84;;;24.12;100.00
38058;BME280;23862;51.972;4.618;2022-07-19T05:45:54;148794.97;;;24.18;100.00
38058;BME280;23862;51.972;4.618;2022-07-19T05:48:19;148802.69;;;24.21;100.00
38058;BME280;23862;51.972;4.618;2022-07-19T05:50:44;148756.44;;;24.02;100.00
38058;BME280;23862;51.972;4.618;2022-07-19T05:53:10;148819.38;;;24.28;100.00
38058;BME280;23862;51.972;4.618;2022-07-19T05:55:35;148846.34;;;24.38;100.00
38058;BME280;23862;51.972;4.618;2022-07-19T05:58:00;148814.25;;;24.26;100.00
38058;BME280;23862;51.972;4.618;2022-07-19T06:00:25;148789.81;;;24.16;100.00
38058;BME280;23862;51.972;4.618;2022-07-19T06:02:51;148836.06;;;24.34;100.00
38058;BME280;23862;51.972;4.618;2022-07-19T06:05:16;148847.63;;;24.39;100.00
38058;BME280;23862;51.972;4.618;2022-07-19T06:07:41;148942.75;;;24.77;100.00
38058;BME280;23862;51.972;4.618;2022-07-19T06:10:07;148936.31;;;24.75;100.00
38058;BME280;23862;51.972;4.618;2022-07-19T06:12:33;149012.16;;;25.05;100.00
38058;BME280;23862;51.972;4.618;2022-07-19T06:14:58;149053.25;;;25.21;100.00
38058;BME280;23862;51.972;4.618;2022-07-19T06:17:24;149050.69;;;25.20;100.00
38058;BME280;23862;51.972;4.618;2022-07-19T06:19:49;149016.00;;;25.06;100.00
38058;BME280;23862;51.972;4.618;2022-07-19T06:22:14;149051.97;;;25.21;100.00
38058;BME280;23862;51.972;4.618;2022-07-19T06:24:40;149026.25;;;25.11;100.00
38058;BME280;23862;51.972;4.618;2022-07-19T06:27:06;149093.16;;;25.37;100.00
38058;BME280;23862;51.972;4.618;2022-07-19T06:29:31;149104.75;;;25.42;100.00
38058;BME280;23862;51.972;4.618;2022-07-19T06:32:05;149067.41;;;25.27;100.00
38058;BME280;23862;51.972;4.618;2022-07-19T06:34:32;149093.16;;;25.37;100.00
38058;BME280;23862;51.972;4.618;2022-07-19T06:36:57;149080.28;;;25.32;100.00
38058;BME280;23862;51.972;4.618;2022-07-19T06:39:22;149086.72;;;25.35;100.00
38058;BME280;23862;51.972;4.618;2022-07-19T06:41:47;149046.84;;;25.19;100.00
38058;BME280;23862;51.972;4.618;2022-07-19T06:44:21;149057.09;;;25.23;100.00
38058;BME280;23862;51.972;4.618;2022-07-19T06:46:47;149089.31;;;25.36;100.00
38058;BME280;23862;51.972;4.618;2022-07-19T06:49:12;149147.13;;;25.59;100.00
38058;BME280;23862;51.972;4.618;2022-07-19T06:51:37;149316.88;;;26.27;100.00
38058;BME280;23862;51.972;4.618;2022-07-19T06:54:10;149520.22;;;27.08;100.00
38058;BME280;23862;51.972;4.618;2022-07-19T06:56:36;149560.09;;;27.24;100.00
38058;BME280;23862;51.972;4.618;2022-07-19T06:59:01;149473.91;;;26.90;100.00
38058;BME280;23862;51.972;4.618;2022-07-19T07:01:26;149489.34;;;26.96;100.00
38058;BME280;23862;51.972;4.618;2022-07-19T07:03:56;149409.50;;;26.64;100.00
38058;BME280;23862;51.972;4.618;2022-07-19T07:06:21;149311.75;;;26.25;100.00
38058;BME280;23862;51.972;4.618;2022-07-19T07:08:46;149374.78;;;26.50;100.00
38058;BME280;23862;51.972;4.618;2022-07-19T07:11:11;149416.00;;;26.66;100.00
38058;BME280;23862;51.972;4.618;2022-07-19T07:13:37;149475.16;;;26.90;100.00
38058;BME280;23862;51.972;4.618;2022-07-19T07:16:03;149591.03;;;27.36;100.00
38058;BME280;23862;51.972;4.618;2022-07-19T07:18:28;149782.84;;;28.13;100.00
38058;BME280;23862;51.972;4.618;2022-07-19T07:20:54;150058.56;;;29.23;100.00
38058;BME280;23862;51.972;4.618;2022-07-19T07:23:20;150191.28;;;29.76;100.00
38058;BME280;23862;51.972;4.618;2022-07-19T07:25:47;150195.16;;;29.78;100.00
38058;BME280;23862;51.972;4.618;2022-07-19T07:28:12;150262.22;;;30.04;100.00
38058;BME280;23862;51.972;4.618;2022-07-19T07:30:37;150357.69;;;30.42;100.00
38058;BME280;23862;51.972;4.618;2022-07-19T07:33:07;150438.91;;;30.75;100.00
38058;BME280;23862;51.972;4.618;2022-07-19T07:35:32;150551.13;;;31.20;100.00
38058;BME280;23862;51.972;4.618;2022-07-19T07:37:57;150587.28;;;31.34;100.00
38058;BME280;23862;51.972;4.618;2022-07-19T07:40:22;150645.38;;;31.57;100.00
38058;BME280;23862;51.972;4.618;2022-07-19T07:42:50;150503.41;;;31.01;100.00
38058;BME280;23862;51.972;4.618;2022-07-19T07:45:15;150595.00;;;31.37;100.00
38058;BME280;23862;51.972;4.618;2022-07-19T07:47:40;150672.41;;;31.68;100.00
38058;BME280;23862;51.972;4.618;2022-07-19T07:50:06;150729.22;;;31.91;100.00
38058;BME280;23862;51.972;4.618;2022-07-19T07:52:32;150724.06;;;31.89;100.00
38058;BME280;23862;51.972;4.618;2022-07-19T07:55:00;150817.03;;;32.26;100.00
38058;BME280;23862;51.972;4.618;2022-07-19T07:57:26;150782.19;;;32.12;100.00
38058;BME280;23862;51.972;4.618;2022-07-19T07:59:51;150965.53;;;32.85;100.00
38058;BME280;23862;51.972;4.618;2022-07-19T08:02:17;150943.56;;;32.76;100.00
38058;BME280;23862;51.972;4.618;2022-07-19T08:04:43;151000.38;;;32.99;100.00
38058;BME280;23862;51.972;4.618;2022-07-19T08:07:08;150860.91;;;32.43;100.00
38058;BME280;23862;51.972;4.618;2022-07-19T08:09:33;151028.78;;;33.10;100.00
38058;BME280;23862;51.972;4.618;2022-07-19T08:11:59;150864.78;;;32.45;100.00
38058;BME280;23862;51.972;4.618;2022-07-19T08:14:24;150828.66;;;32.30;100.00
38058;BME280;23862;51.972;4.618;2022-07-19T08:16:49;150860.91;;;32.43;100.00
38058;BME280;23862;51.972;4.618;2022-07-19T08:19:14;151005.53;;;33.01;100.00
38058;BME280;23862;51.972;4.618;2022-07-19T08:21:40;150992.63;;;32.96;100.00
38058;BME280;23862;51.972;4.618;2022-07-19T08:24:06;150969.41;;;32.86;100.00
38058;BME280;23862;51.972;4.618;2022-07-19T08:26:31;150950.03;;;32.79;100.00
38058;BME280;23862;51.972;4.618;2022-07-19T08:28:57;150930.66;;;32.71;100.00
38058;BME280;23862;51.972;4.618;2022-07-19T08:31:22;150811.84;;;32.24;100.00
38058;BME280;23862;51.972;4.618;2022-07-19T08:36:17;150851.84;;;32.39;100.00
38058;BME280;23862;51.972;4.618;2022-07-19T08:38:42;150836.41;;;32.33;100.00
38058;BME280;23862;51.972;4.618;2022-07-19T08:41:07;150977.16;;;32.89;100.00
38058;BME280;23862;51.972;4.618;2022-07-19T08:43:35;150938.41;;;32.74;100.00
38058;BME280;23862;51.972;4.618;2022-07-19T08:46:01;150986.16;;;32.93;100.00
38058;BME280;23862;51.972;4.618;2022-07-19T08:48:29;151057.22;;;33.21;100.00
38058;BME280;23862;51.972;4.618;2022-07-19T08:50:55;150992.63;;;32.96;100.00
38058;BME280;23862;51.972;4.618;2022-07-19T08:53:22;151063.69;;;33.24;100.00
38058;BME280;23862;51.972;4.618;2022-07-19T08:55:48;150860.91;;;32.43;100.00
38058;BME280;23862;51.972;4.618;2022-07-19T08:58:14;150968.06;;;32.86;100.00
38058;BME280;23862;51.972;4.618;2022-07-19T09:00:40;150999.06;;;32.98;100.00
38058;BME280;23862;51.972;4.618;2022-07-19T09:03:05;151015.88;;;33.05;100.00
38058;BME280;23862;51.972;4.618;2022-07-19T09:05:31;151001.66;;;32.99;100.00
38058;BME280;23862;51.972;4.618;2022-07-19T09:08:08;151183.84;;;33.72;100.00
38058;BME280;23862;51.972;4.618;2022-07-19T09:10:35;151207.09;;;33.81;100.00
38058;BME280;23862;51.972;4.618;2022-07-19T09:15:37;151254.91;;;34.00;100.00
38058;BME280;23862;51.972;4.618;2022-07-19T09:18:13;151245.81;;;33.96;100.00
38058;BME280;23862;51.972;4.618;2022-07-19T09:20:39;151186.41;;;33.73;100.00
38058;BME280;23862;51.972;4.618;2022-07-19T09:25:41;151272.94;;;34.07;100.00
38058;BME280;23862;51.972;4.618;2022-07-19T09:28:07;151227.75;;;33.89;100.00
38058;BME280;23862;51.972;4.618;2022-07-19T09:30:34;151318.22;;;34.25;100.00
38058;BME280;23862;51.972;4.618;2022-07-19T09:33:16;151377.66;;;34.49;100.00
38058;BME280;23862;51.972;4.618;2022-07-19T09:35:46;151327.25;;;34.29;100.00
38058;BME280;23862;51.972;4.618;2022-07-19T09:38:15;151276.81;;;34.09;100.00
38058;BME280;23862;51.972;4.618;2022-07-19T09:40:41;151238.06;;;33.93;100.00
38058;BME280;23862;51.972;4.618;2022-07-19T09:43:08;151230.31;;;33.90;100.00
38058;BME280;23862;51.972;4.618;2022-07-19T09:45:34;151265.19;;;34.04;100.00
38058;BME280;23862;51.972;4.618;2022-07-19T09:47:59;151416.44;;;34.64;100.00
38058;BME280;23862;51.972;4.618;2022-07-19T09:50:25;151448.78;;;34.77;100.00
38058;BME280;23862;51.972;4.618;2022-07-19T09:53:06;151338.91;;;34.33;100.00
38058;BME280;23862;51.972;4.618;2022-07-19T09:55:31;151397.03;;;34.57;100.00
38058;BME280;23862;51.972;4.618;2022-07-19T09:57:57;151413.81;;;34.63;100.00
38058;BME280;23862;51.972;4.618;2022-07-19T10:00:23;151275.53;;;34.08;100.00
38058;BME280;23862;51.972;4.618;2022-07-19T10:02:57;151294.94;;;34.16;100.00
38058;BME280;23862;51.972;4.618;2022-07-19T10:05:23;151258.78;;;34.02;100.00
38058;BME280;23862;51.972;4.618;2022-07-19T10:07:49;151189.00;;;33.74;100.00
38058;BME280;23862;51.972;4.618;2022-07-19T10:10:16;151168.31;;;33.66;100.00
38058;BME280;23862;51.972;4.618;2022-07-19T10:12:44;151138.59;;;33.54;100.00
38058;BME280;23862;51.972;4.618;2022-07-19T10:15:11;151241.94;;;33.95;100.00
38058;BME280;23862;51.972;4.618;2022-07-19T10:20:21;151155.34;;;33.60;100.00
38058;BME280;23862;51.972;4.618;2022-07-19T10:22:49;151157.97;;;33.61;100.00
38058;BME280;23862;51.972;4.618;2022-07-19T10:25:18;151183.84;;;33.72;100.00
38058;BME280;23862;51.972;4.618;2022-07-19T10:28:02;151306.56;;;34.21;100.00
38058;BME280;23862;51.972;4.618;2022-07-19T10:30:27;151368.63;;;34.45;100.00
38058;BME280;23862;51.972;4.618;2022-07-19T10:32:56;151404.78;;;34.60;100.00
38058;BME280;23862;51.972;4.618;2022-07-19T10:37:51;151331.13;;;34.30;100.00
38058;BME280;23862;51.972;4.618;2022-07-19T10:43:19;151455.25;;;34.80;100.00
38058;BME280;23862;51.972;4.618;2022-07-19T10:48:39;151371.22;;;34.46;100.00
38058;BME280;23862;51.972;4.618;2022-07-19T10:51:05;151345.38;;;34.36;100.00
38058;BME280;23862;51.972;4.618;2022-07-19T10:59:00;151464.28;;;34.83;100.00
38058;BME280;23862;51.972;4.618;2022-07-19T11:01:27;151585.88;;;35.32;100.00
38058;BME280;23862;51.972;4.618;2022-07-19T11:04:21;151550.91;;;35.18;100.00
38058;BME280;23862;51.972;4.618;2022-07-19T11:06:41;151504.38;;;34.99;100.00
38058;BME280;23862;51.972;4.618;2022-07-19T11:09:06;151563.81;;;35.23;100.00
38058;BME280;23862;51.972;4.618;2022-07-19T11:11:33;151570.34;;;35.26;98.48
38058;BME280;23862;51.972;4.618;2022-07-19T11:16:27;151618.19;;;35.45;94.80
38058;BME280;23862;51.972;4.618;2022-07-19T11:19:01;151589.75;;;35.33;90.48
38058;BME280;23862;51.972;4.618;2022-07-19T11:21:29;151597.50;;;35.36;93.58
38058;BME280;23862;51.972;4.618;2022-07-19T11:23:55;151703.56;;;35.79;91.79
38058;BME280;23862;51.972;4.618;2022-07-19T11:26:20;151748.78;;;35.97;88.84
38058;BME280;23862;51.972;4.618;2022-07-19T11:28:46;151757.88;;;36.00;88.78
38058;BME280;23862;51.972;4.618;2022-07-19T11:31:16;151646.59;;;35.56;96.46
38058;BME280;23862;51.972;4.618;2022-07-19T11:33:42;151710.00;;;35.81;92.42
38058;BME280;23862;51.972;4.618;2022-07-19T11:36:08;151700.97;;;35.78;88.34
38058;BME280;23862;51.972;4.618;2022-07-19T11:38:44;151659.53;;;35.61;89.05
38058;BME280;23862;51.972;4.618;2022-07-19T11:41:23;151632.38;;;35.50;93.95
38058;BME280;23862;51.972;4.618;2022-07-19T11:43:59;151535.41;;;35.12;91.25
38058;BME280;23862;51.972;4.618;2022-07-19T11:46:31;151523.78;;;35.07;92.91
38058;BME280;23862;51.972;4.618;2022-07-19T11:49:00;151663.41;;;35.63;93.05
38058;BME280;23862;51.972;4.618;2022-07-19T11:51:26;151711.31;;;35.82;88.83
38058;BME280;23862;51.972;4.618;2022-07-19T11:53:55;151688.00;;;35.72;94.02
38058;BME280;23862;51.972;4.618;2022-07-19T11:58:45;151682.78;;;35.70;87.79
38058;BME280;23862;51.972;4.618;2022-07-19T12:01:11;151615.56;;;35.44;92.41
38058;BME280;23862;51.972;4.618;2022-07-19T12:03:38;151693.16;;;35.74;94.72
38058;BME280;23862;51.972;4.618;2022-07-19T12:06:05;151792.75;;;36.14;89.99
38058;BME280;23862;51.972;4.618;2022-07-19T12:10:59;151743.63;;;35.94;90.95
38058;BME280;23862;51.972;4.618;2022-07-19T12:13:34;151747.53;;;35.96;90.00
38058;BME280;23862;51.972;4.618;2022-07-19T12:16:07;151726.84;;;35.88;86.75
38058;BME280;23862;51.972;4.618;2022-07-19T12:18:43;151760.44;;;36.01;80.11
38058;BME280;23862;51.972;4.618;2022-07-19T12:21:14;151764.31;;;36.03;78.77
38058;BME280;23862;51.972;4.618;2022-07-19T12:23:40;151796.63;;;36.16;75.53
38058;BME280;23862;51.972;4.618;2022-07-19T12:26:06;151871.72;;;36.45;78.36
38058;BME280;23862;51.972;4.618;2022-07-19T12:28:31;151799.25;;;36.17;78.77
38058;BME280;23862;51.972;4.618;2022-07-19T12:31:01;151805.72;;;36.19;77.33
38058;BME280;23862;51.972;4.618;2022-07-19T12:33:26;151799.25;;;36.17;76.65
38058;BME280;23862;51.972;4.618;2022-07-19T12:35:51;151832.94;;;36.30;74.15
38058;BME280;23862;51.972;4.618;2022-07-19T12:38:26;151853.59;;;36.38;78.07
38058;BME280;23862;51.972;4.618;2022-07-19T12:40:51;151831.59;;;36.29;81.19
38058;BME280;23862;51.972;4.618;2022-07-19T12:43:30;151840.69;;;36.33;78.72
38058;BME280;23862;51.972;4.618;2022-07-19T12:45:55;151888.53;;;36.52;72.60
38058;BME280;23862;51.972;4.618;2022-07-19T12:48:23;151923.47;;;36.66;68.11
38058;BME280;23862;51.972;4.618;2022-07-19T12:50:49;151876.91;;;36.47;65.99
38058;BME280;23862;51.972;4.618;2022-07-19T12:53:17;152007.59;;;36.99;57.67
38058;BME280;23862;51.972;4.618;2022-07-19T12:55:42;151985.63;;;36.91;62.63
38058;BME280;23862;51.972;4.618;2022-07-19T12:58:08;151907.94;;;36.60;58.50
38058;BME280;23862;51.972;4.618;2022-07-19T13:00:34;151944.19;;;36.74;61.89
38058;BME280;23862;51.972;4.618;2022-07-19T13:03:00;151906.66;;;36.59;60.34
38058;BME280;23862;51.972;4.618;2022-07-19T13:05:26;151929.94;;;36.69;56.22
38058;BME280;23862;51.972;4.618;2022-07-19T13:07:52;151929.94;;;36.69;56.65
38058;BME280;23862;51.972;4.618;2022-07-19T13:10:17;151966.22;;;36.83;59.03
38058;BME280;23862;51.972;4.618;2022-07-19T13:12:44;151962.31;;;36.81;57.93
38058;BME280;23862;51.972;4.618;2022-07-19T13:15:10;151981.75;;;36.89;56.00
38058;BME280;23862;51.972;4.618;2022-07-19T13:17:35;152036.06;;;37.11;51.69